sensor_id;sensor_type;location;lat;lon;timestamp;temperature;humidity
60027;DHT22;45891;53.006;6.512;2022-11-25T00:01:12;7.10;99.90
60027;DHT22;45891;53.006;6.512;2022-11-25T00:03:40;7.10;99.90
60027;DHT22;45891;53.006;6.512;2022-11-25T00:06:16;7.10;99.90
60027;DHT22;45891;53.006;6.512;2022-11-25T00:08:43;7.10;99.90
60027;DHT22;45891;53.006;6.512;2022-11-25T00:11:10;7.20;99.90
60027;DHT22;45891;53.006;6.512;2022-11-25T00:13:37;7.20;99.90
60027;DHT22;45891;53.006;6.512;2022-11-25T00:16:04;7.20;99.90
60027;DHT22;45891;53.006;6.512;2022-11-25T00:18:30;7.20;99.90
60027;DHT22;45891;53.006;6.512;2022-11-25T00:20:57;7.20;99.90
60027;DHT22;45891;53.006;6.512;2022-11-25T00:23:26;7.10;99.90
60027;DHT22;45891;53.006;6.512;2022-11-25T00:25:54;7.20;99.90
60027;DHT22;45891;53.006;6.512;2022-11-25T00:28:21;7.20;99.90
60027;DHT22;45891;53.006;6.512;2022-11-25T00:30:50;7.20;99.90
60027;DHT22;45891;53.006;6.512;2022-11-25T00:33:16;7.10;99.90
60027;DHT22;45891;53.006;6.512;2022-11-25T00:35:48;7.20;99.90
60027;DHT22;45891;53.006;6.512;2022-11-25T00:38:17;7.10;99.90
60027;DHT22;45891;53.006;6.512;2022-11-25T00:40:50;7.20;99.90
60027;DHT22;45891;53.006;6.512;2022-11-25T00:43:38;7.20;99.90
60027;DHT22;45891;53.006;6.512;2022-11-25T00:46:23;7.10;99.90
60027;DHT22;45891;53.006;6.512;2022-11-25T00:48:50;7.10;99.90
60027;DHT22;45891;53.006;6.512;2022-11-25T00:51:16;7.10;99.90
60027;DHT22;45891;53.006;6.512;2022-11-25T00:53:42;7.20;99.90
60027;DHT22;45891;53.006;6.512;2022-11-25T00:56:08;7.20;99.90
60027;DHT22;45891;53.006;6.512;2022-11-25T00:58:40;7.20;99.90
60027;DHT22;45891;53.006;6.512;2022-11-25T01:01:06;7.20;99.90
60027;DHT22;45891;53.006;6.512;2022-11-25T01:03:34;7.20;99.90
60027;DHT22;45891;53.006;6.512;2022-11-25T01:06:02;7.20;99.90
60027;DHT22;45891;53.006;6.512;2022-11-25T01:08:36;7.20;99.90
60027;DHT22;45891;53.006;6.512;2022-11-25T01:11:33;7.30;99.90
60027;DHT22;45891;53.006;6.512;2022-11-25T01:13:59;7.30;99.90
60027;DHT22;45891;53.006;6.512;2022-11-25T01:16:26;7.30;99.90
60027;DHT22;45891;53.006;6.512;2022-11-25T01:18:52;7.30;99.90
60027;DHT22;45891;53.006;6.512;2022-11-25T01:21:22;7.30;99.90
60027;DHT22;45891;53.006;6.512;2022-11-25T01:23:48;7.30;99.90
60027;DHT22;45891;53.006;6.512;2022-11-25T01:26:21;7.30;99.90
60027;DHT22;45891;53.006;6.512;2022-11-25T01:28:48;7.30;99.90
60027;DHT22;45891;53.006;6.512;2022-11-25T01:31:19;7.30;99.90
60027;DHT22;45891;53.006;6.512;2022-11-25T01:33:47;7.20;99.90
60027;DHT22;45891;53.006;6.512;2022-11-25T01:36:14;7.20;99.90
60027;DHT22;45891;53.006;6.512;2022-11-25T01:38:40;7.30;99.90
60027;DHT22;45891;53.006;6.512;2022-11-25T01:41:08;7.30;99.90
60027;DHT22;45891;53.006;6.512;2022-11-25T01:43:37;7.30;99.90
60027;DHT22;45891;53.006;6.512;2022-11-25T01:46:24;7.30;99.90
60027;DHT22;45891;53.006;6.512;2022-11-25T01:48:57;7.40;99.90
60027;DHT22;45891;53.006;6.512;2022-11-25T01:54:37;7.30;99.90
60027;DHT22;45891;53.006;6.512;2022-11-25T01:57:16;7.40;99.90
60027;DHT22;45891;53.006;6.512;2022-11-25T01:59:45;7.40;99.90
60027;DHT22;45891;53.006;6.512;2022-11-25T02:02:14;7.40;99.90
60027;DHT22;45891;53.006;6.512;2022-11-25T02:04:41;7.40;99.90
60027;DHT22;45891;53.006;6.512;2022-11-25T02:07:11;7.40;99.90
60027;DHT22;45891;53.006;6.512;2022-11-25T02:09:42;7.50;99.90
60027;DHT22;45891;53.006;6.512;2022-11-25T02:12:09;7.50;99.90
60027;DHT22;45891;53.006;6.512;2022-11-25T02:14:35;7.50;99.90
60027;DHT22;45891;53.006;6.512;2022-11-25T02:17:01;7.50;99.90
60027;DHT22;45891;53.006;6.512;2022-11-25T02:19:35;7.50;99.90
60027;DHT22;45891;53.006;6.512;2022-11-25T02:22:05;7.50;99.90
60027;DHT22;45891;53.006;6.512;2022-11-25T02:24:39;7.50;99.90
60027;DHT22;45891;53.006;6.512;2022-11-25T02:27:08;7.50;99.90
60027;DHT22;45891;53.006;6.512;2022-11-25T02:29:34;7.50;99.90
60027;DHT22;45891;53.006;6.512;2022-11-25T02:32:00;7.50;99.90
60027;DHT22;45891;53.006;6.512;2022-11-25T02:34:27;7.50;99.90
60027;DHT22;45891;53.006;6.512;2022-11-25T02:36:52;7.50;99.90
60027;DHT22;45891;53.006;6.512;2022-11-25T02:39:19;7.50;99.90
60027;DHT22;45891;53.006;6.512;2022-11-25T02:41:55;7.50;99.90
60027;DHT22;45891;53.006;6.512;2022-11-25T02:44:24;7.40;99.90
60027;DHT22;45891;53.006;6.512;2022-11-25T02:46:50;7.50;99.90
60027;DHT22;45891;53.006;6.512;2022-11-25T02:49:15;7.50;99.90
60027;DHT22;45891;53.006;6.512;2022-11-25T02:51:42;7.50;99.90
60027;DHT22;45891;53.006;6.512;2022-11-25T02:54:10;7.50;99.90
60027;DHT22;45891;53.006;6.512;2022-11-25T02:56:36;7.50;99.90
60027;DHT22;45891;53.006;6.512;2022-11-25T02:59:02;7.50;99.90
60027;DHT22;45891;53.006;6.512;2022-11-25T03:01:28;7.50;99.90
60027;DHT22;45891;53.006;6.512;2022-11-25T03:03:56;7.50;99.90
60027;DHT22;45891;53.006;6.512;2022-11-25T03:06:23;7.60;99.90
60027;DHT22;45891;53.006;6.512;2022-11-25T03:08:54;7.50;99.90
60027;DHT22;45891;53.006;6.512;2022-11-25T03:11:20;7.60;99.90
60027;DHT22;45891;53.006;6.512;2022-11-25T03:14:06;7.60;99.90
60027;DHT22;45891;53.006;6.512;2022-11-25T03:16:33;7.60;99.90
60027;DHT22;45891;53.006;6.512;2022-11-25T03:19:08;7.60;99.90
60027;DHT22;45891;53.006;6.512;2022-11-25T03:21:34;7.60;99.90
60027;DHT22;45891;53.006;6.512;2022-11-25T03:24:00;7.60;99.90
60027;DHT22;45891;53.006;6.512;2022-11-25T03:29:33;7.60;99.90
60027;DHT22;45891;53.006;6.512;2022-11-25T03:35:03;7.60;99.90
60027;DHT22;45891;53.006;6.512;2022-11-25T03:38:13;7.60;99.90
60027;DHT22;45891;53.006;6.512;2022-11-25T03:40:39;7.60;99.90
60027;DHT22;45891;53.006;6.512;2022-11-25T03:43:19;7.60;99.90
60027;DHT22;45891;53.006;6.512;2022-11-25T03:46:08;7.60;99.90
60027;DHT22;45891;53.006;6.512;2022-11-25T03:48:46;7.60;99.90
60027;DHT22;45891;53.006;6.512;2022-11-25T03:51:25;7.70;99.90
60027;DHT22;45891;53.006;6.512;2022-11-25T03:53:57;7.70;99.90
60027;DHT22;45891;53.006;6.512;2022-11-25T03:56:39;7.70;99.90
60027;DHT22;45891;53.006;6.512;2022-11-25T03:59:39;7.70;99.90
60027;DHT22;45891;53.006;6.512;2022-11-25T04:02:08;7.70;99.90
60027;DHT22;45891;53.006;6.512;2022-11-25T04:04:49;7.70;99.90
60027;DHT22;45891;53.006;6.512;2022-11-25T04:07:18;7.70;99.90
60027;DHT22;45891;53.006;6.512;2022-11-25T04:10:05;7.70;99.90
60027;DHT22;45891;53.006;6.512;2022-11-25T04:15:19;7.70;99.90
60027;DHT22;45891;53.006;6.512;2022-11-25T04:17:49;7.80;99.90
60027;DHT22;45891;53.006;6.512;2022-11-25T04:20:20;7.80;99.90
60027;DHT22;45891;53.006;6.512;2022-11-25T04:22:46;7.80;99.90
60027;DHT22;45891;53.006;6.512;2022-11-25T04:25:12;7.80;99.90
60027;DHT22;45891;53.006;6.512;2022-11-25T04:27:48;7.80;99.90
60027;DHT22;45891;53.006;6.512;2022-11-25T04:30:14;7.80;99.90
60027;DHT22;45891;53.006;6.512;2022-11-25T04:32:41;7.90;99.90
60027;DHT22;45891;53.006;6.512;2022-11-25T04:35:07;7.90;99.90
60027;DHT22;45891;53.006;6.512;2022-11-25T04:37:34;7.90;99.90
60027;DHT22;45891;53.006;6.512;2022-11-25T04:40:00;7.90;99.90
60027;DHT22;45891;53.006;6.512;2022-11-25T04:42:31;7.90;99.90
60027;DHT22;45891;53.006;6.512;2022-11-25T04:45:03;7.90;99.90
60027;DHT22;45891;53.006;6.512;2022-11-25T04:47:30;7.90;99.90
60027;DHT22;45891;53.006;6.512;2022-11-25T04:50:00;7.90;99.90
60027;DHT22;45891;53.006;6.512;2022-11-25T04:52:26;7.90;99.90
60027;DHT22;45891;53.006;6.512;2022-11-25T04:54:52;7.90;99.90
60027;DHT22;45891;53.006;6.512;2022-11-25T04:57:22;7.90;99.90
60027;DHT22;45891;53.006;6.512;2022-11-25T04:59:48;7.90;99.90
60027;DHT22;45891;53.006;6.512;2022-11-25T05:02:19;7.90;99.90
60027;DHT22;45891;53.006;6.512;2022-11-25T05:04:53;7.90;99.90
60027;DHT22;45891;53.006;6.512;2022-11-25T05:07:20;7.90;99.90
60027;DHT22;45891;53.006;6.512;2022-11-25T05:09:58;7.90;99.90
60027;DHT22;45891;53.006;6.512;2022-11-25T05:12:27;7.90;99.90
60027;DHT22;45891;53.006;6.512;2022-11-25T05:14:54;7.90;99.90
60027;DHT22;45891;53.006;6.512;2022-11-25T05:17:22;7.90;99.90
60027;DHT22;45891;53.006;6.512;2022-11-25T05:19:48;7.90;99.90
60027;DHT22;45891;53.006;6.512;2022-11-25T05:22:16;7.90;99.90
60027;DHT22;45891;53.006;6.512;2022-11-25T05:24:49;7.90;99.90
60027;DHT22;45891;53.006;6.512;2022-11-25T05:27:20;7.90;99.90
60027;DHT22;45891;53.006;6.512;2022-11-25T05:29:49;7.90;99.90
60027;DHT22;45891;53.006;6.512;2022-11-25T05:32:15;7.90;99.90
60027;DHT22;45891;53.006;6.512;2022-11-25T05:34:51;7.90;99.90
60027;DHT22;45891;53.006;6.512;2022-11-25T05:37:17;7.90;99.90
60027;DHT22;45891;53.006;6.512;2022-11-25T05:39:43;8.00;99.90
60027;DHT22;45891;53.006;6.512;2022-11-25T05:42:09;7.90;99.90
60027;DHT22;45891;53.006;6.512;2022-11-25T05:44:35;8.00;99.90
60027;DHT22;45891;53.006;6.512;2022-11-25T05:47:02;8.00;99.90
60027;DHT22;45891;53.006;6.512;2022-11-25T05:49:29;8.00;99.90
60027;DHT22;45891;53.006;6.512;2022-11-25T05:51:55;8.00;99.90
60027;DHT22;45891;53.006;6.512;2022-11-25T05:54:23;8.00;99.90
60027;DHT22;45891;53.006;6.512;2022-11-25T05:56:49;8.00;99.90
60027;DHT22;45891;53.006;6.512;2022-11-25T05:59:15;8.00;99.90
60027;DHT22;45891;53.006;6.512;2022-11-25T06:01:41;8.10;99.90
60027;DHT22;45891;53.006;6.512;2022-11-25T06:04:10;8.10;99.90
60027;DHT22;45891;53.006;6.512;2022-11-25T06:06:36;8.00;99.90
60027;DHT22;45891;53.006;6.512;2022-11-25T06:09:02;8.10;99.90
60027;DHT22;45891;53.006;6.512;2022-11-25T06:11:29;8.10;99.90
60027;DHT22;45891;53.006;6.512;2022-11-25T06:13:57;8.10;99.90
60027;DHT22;45891;53.006;6.512;2022-11-25T06:16:23;8.10;99.90
60027;DHT22;45891;53.006;6.512;2022-11-25T06:18:56;8.10;99.90
60027;DHT22;45891;53.006;6.512;2022-11-25T06:21:22;8.10;99.90
60027;DHT22;45891;53.006;6.512;2022-11-25T06:26:35;8.10;99.90
60027;DHT22;45891;53.006;6.512;2022-11-25T06:29:01;8.10;99.90
60027;DHT22;45891;53.006;6.512;2022-11-25T06:31:27;8.20;99.90
60027;DHT22;45891;53.006;6.512;2022-11-25T06:33:52;8.20;99.90
60027;DHT22;45891;53.006;6.512;2022-11-25T06:36:19;8.10;99.90
60027;DHT22;45891;53.006;6.512;2022-11-25T06:38:46;8.10;99.90
60027;DHT22;45891;53.006;6.512;2022-11-25T06:41:13;8.10;99.90
60027;DHT22;45891;53.006;6.512;2022-11-25T06:43:40;8.10;99.90
60027;DHT22;45891;53.006;6.512;2022-11-25T06:46:07;8.20;99.90
60027;DHT22;45891;53.006;6.512;2022-11-25T06:48:33;8.20;99.90
60027;DHT22;45891;53.006;6.512;2022-11-25T06:51:01;8.20;99.90
60027;DHT22;45891;53.006;6.512;2022-11-25T06:53:27;8.20;99.90
60027;DHT22;45891;53.006;6.512;2022-11-25T06:58:34;8.20;99.90
60027;DHT22;45891;53.006;6.512;2022-11-25T07:03:34;8.20;99.90
60027;DHT22;45891;53.006;6.512;2022-11-25T07:06:01;8.20;99.90
60027;DHT22;45891;53.006;6.512;2022-11-25T07:08:28;8.20;99.90
60027;DHT22;45891;53.006;6.512;2022-11-25T07:10:54;8.20;99.90
60027;DHT22;45891;53.006;6.512;2022-11-25T07:13:20;8.20;99.90
60027;DHT22;45891;53.006;6.512;2022-11-25T07:15:46;8.20;99.90
60027;DHT22;45891;53.006;6.512;2022-11-25T07:18:12;8.20;99.90
60027;DHT22;45891;53.006;6.512;2022-11-25T07:20:38;8.20;99.90
60027;DHT22;45891;53.006;6.512;2022-11-25T07:23:04;8.20;99.90
60027;DHT22;45891;53.006;6.512;2022-11-25T07:25:31;8.20;99.90
60027;DHT22;45891;53.006;6.512;2022-11-25T07:27:57;8.10;99.90
60027;DHT22;45891;53.006;6.512;2022-11-25T07:30:23;8.20;99.90
60027;DHT22;45891;53.006;6.512;2022-11-25T07:32:48;8.10;99.90
60027;DHT22;45891;53.006;6.512;2022-11-25T07:35:14;8.10;99.90
60027;DHT22;45891;53.006;6.512;2022-11-25T07:37:40;8.10;99.90
60027;DHT22;45891;53.006;6.512;2022-11-25T07:40:06;8.00;99.90
60027;DHT22;45891;53.006;6.512;2022-11-25T07:42:32;8.00;99.90
60027;DHT22;45891;53.006;6.512;2022-11-25T07:44:58;8.00;99.90
60027;DHT22;45891;53.006;6.512;2022-11-25T07:47:25;8.00;99.90
60027;DHT22;45891;53.006;6.512;2022-11-25T07:49:50;8.00;99.90
60027;DHT22;45891;53.006;6.512;2022-11-25T07:52:16;8.00;99.90
60027;DHT22;45891;53.006;6.512;2022-11-25T07:54:42;7.90;99.90
60027;DHT22;45891;53.006;6.512;2022-11-25T07:57:08;7.90;99.90
60027;DHT22;45891;53.006;6.512;2022-11-25T07:59:34;7.90;99.90
60027;DHT22;45891;53.006;6.512;2022-11-25T08:02:00;7.90;99.90
60027;DHT22;45891;53.006;6.512;2022-11-25T08:04:26;7.90;99.90
60027;DHT22;45891;53.006;6.512;2022-11-25T08:06:52;7.90;99.90
60027;DHT22;45891;53.006;6.512;2022-11-25T08:09:20;7.90;99.90
60027;DHT22;45891;53.006;6.512;2022-11-25T08:11:46;7.90;99.90
60027;DHT22;45891;53.006;6.512;2022-11-25T08:14:13;7.80;99.90
60027;DHT22;45891;53.006;6.512;2022-11-25T08:16:39;7.80;99.90
60027;DHT22;45891;53.006;6.512;2022-11-25T08:19:06;7.80;99.90
60027;DHT22;45891;53.006;6.512;2022-11-25T08:21:32;7.80;99.90
60027;DHT22;45891;53.006;6.512;2022-11-25T08:23:58;7.80;99.90
60027;DHT22;45891;53.006;6.512;2022-11-25T08:26:28;7.80;99.90
60027;DHT22;45891;53.006;6.512;2022-11-25T08:28:56;7.80;99.90
60027;DHT22;45891;53.006;6.512;2022-11-25T08:31:23;7.80;99.90
60027;DHT22;45891;53.006;6.512;2022-11-25T08:33:51;7.90;99.90
60027;DHT22;45891;53.006;6.512;2022-11-25T08:36:17;7.90;99.90
60027;DHT22;45891;53.006;6.512;2022-11-25T08:38:44;7.90;99.90
60027;DHT22;45891;53.006;6.512;2022-11-25T08:41:11;8.00;99.90
60027;DHT22;45891;53.006;6.512;2022-11-25T08:43:38;8.00;99.90
60027;DHT22;45891;53.006;6.512;2022-11-25T08:46:10;8.00;99.90
60027;DHT22;45891;53.006;6.512;2022-11-25T08:48:36;8.00;99.90
60027;DHT22;45891;53.006;6.512;2022-11-25T08:51:05;8.10;99.90
60027;DHT22;45891;53.006;6.512;2022-11-25T08:53:32;8.10;99.90
60027;DHT22;45891;53.006;6.512;2022-11-25T08:55:58;8.10;99.90
60027;DHT22;45891;53.006;6.512;2022-11-25T08:58:24;8.20;99.90
60027;DHT22;45891;53.006;6.512;2022-11-25T09:00:50;8.20;99.90
60027;DHT22;45891;53.006;6.512;2022-11-25T09:03:17;8.20;99.90
60027;DHT22;45891;53.006;6.512;2022-11-25T09:05:43;8.20;99.90
60027;DHT22;45891;53.006;6.512;2022-11-25T09:08:09;8.20;99.90
60027;DHT22;45891;53.006;6.512;2022-11-25T09:10:35;8.20;99.90
60027;DHT22;45891;53.006;6.512;2022-11-25T09:13:02;8.20;99.90
60027;DHT22;45891;53.006;6.512;2022-11-25T09:15:28;8.20;99.90
60027;DHT22;45891;53.006;6.512;2022-11-25T09:18:01;8.20;99.90
60027;DHT22;45891;53.006;6.512;2022-11-25T09:20:28;8.30;99.90
60027;DHT22;45891;53.006;6.512;2022-11-25T09:22:54;8.30;99.90
60027;DHT22;45891;53.006;6.512;2022-11-25T09:25:21;8.30;99.90
60027;DHT22;45891;53.006;6.512;2022-11-25T09:27:49;8.40;99.90
60027;DHT22;45891;53.006;6.512;2022-11-25T09:30:15;8.40;99.90
60027;DHT22;45891;53.006;6.512;2022-11-25T09:32:41;8.50;99.90
60027;DHT22;45891;53.006;6.512;2022-11-25T09:35:07;8.60;99.90
60027;DHT22;45891;53.006;6.512;2022-11-25T09:37:33;8.60;99.90
60027;DHT22;45891;53.006;6.512;2022-11-25T09:39:59;8.60;99.90
60027;DHT22;45891;53.006;6.512;2022-11-25T09:53:44;8.80;99.90
60027;DHT22;45891;53.006;6.512;2022-11-25T09:56:13;8.80;99.90
60027;DHT22;45891;53.006;6.512;2022-11-25T09:58:54;8.80;99.90
60027;DHT22;45891;53.006;6.512;2022-11-25T10:01:24;8.90;99.90
60027;DHT22;45891;53.006;6.512;2022-11-25T10:06:23;9.00;99.90
60027;DHT22;45891;53.006;6.512;2022-11-25T10:09:01;9.00;99.90
60027;DHT22;45891;53.006;6.512;2022-11-25T10:11:39;9.00;99.90
60027;DHT22;45891;53.006;6.512;2022-11-25T10:14:50;9.10;99.90
60027;DHT22;45891;53.006;6.512;2022-11-25T10:16:57;9.20;99.90
60027;DHT22;45891;53.006;6.512;2022-11-25T10:22:09;9.20;99.90
60027;DHT22;45891;53.006;6.512;2022-11-25T10:24:36;9.30;99.90
60027;DHT22;45891;53.006;6.512;2022-11-25T10:27:04;9.40;99.90
60027;DHT22;45891;53.006;6.512;2022-11-25T10:29:33;9.40;99.90
60027;DHT22;45891;53.006;6.512;2022-11-25T10:32:36;9.40;99.90
60027;DHT22;45891;53.006;6.512;2022-11-25T10:34:58;9.50;99.90
60027;DHT22;45891;53.006;6.512;2022-11-25T10:37:35;9.60;99.90
60027;DHT22;45891;53.006;6.512;2022-11-25T10:40:03;9.60;99.90
60027;DHT22;45891;53.006;6.512;2022-11-25T10:42:29;9.70;99.90
60027;DHT22;45891;53.006;6.512;2022-11-25T10:44:57;9.70;99.90
60027;DHT22;45891;53.006;6.512;2022-11-25T10:52:35;9.80;99.90
60027;DHT22;45891;53.006;6.512;2022-11-25T10:55:16;9.90;99.90
60027;DHT22;45891;53.006;6.512;2022-11-25T10:57:42;9.90;99.90
60027;DHT22;45891;53.006;6.512;2022-11-25T11:02:53;10.10;99.90
60027;DHT22;45891;53.006;6.512;2022-11-25T11:05:21;10.10;99.90
60027;DHT22;45891;53.006;6.512;2022-11-25T11:07:48;10.10;99.90
60027;DHT22;45891;53.006;6.512;2022-11-25T11:10:31;10.10;99.90
60027;DHT22;45891;53.006;6.512;2022-11-25T11:12:58;10.10;99.90
60027;DHT22;45891;53.006;6.512;2022-11-25T11:17:54;10.10;99.90
60027;DHT22;45891;53.006;6.512;2022-11-25T11:20:24;10.10;99.90
60027;DHT22;45891;53.006;6.512;2022-11-25T11:22:55;10.10;99.90
60027;DHT22;45891;53.006;6.512;2022-11-25T11:25:26;10.20;99.90
60027;DHT22;45891;53.006;6.512;2022-11-25T11:27:52;10.20;99.90
60027;DHT22;45891;53.006;6.512;2022-11-25T11:30:19;10.30;99.90
60027;DHT22;45891;53.006;6.512;2022-11-25T11:33:26;10.40;99.90
60027;DHT22;45891;53.006;6.512;2022-11-25T11:35:46;10.40;99.90
60027;DHT22;45891;53.006;6.512;2022-11-25T11:38:21;10.60;99.90
60027;DHT22;45891;53.006;6.512;2022-11-25T11:40:50;10.60;99.90
60027;DHT22;45891;53.006;6.512;2022-11-25T11:43:26;10.70;99.90
60027;DHT22;45891;53.006;6.512;2022-11-25T11:50:47;10.80;99.90
60027;DHT22;45891;53.006;6.512;2022-11-25T12:00:50;11.10;99.90
60027;DHT22;45891;53.006;6.512;2022-11-25T12:03:20;11.30;99.90
60027;DHT22;45891;53.006;6.512;2022-11-25T12:05:47;12.20;99.90
60027;DHT22;45891;53.006;6.512;2022-11-25T12:16:11;11.40;99.90
60027;DHT22;45891;53.006;6.512;2022-11-25T12:18:46;11.20;99.90
60027;DHT22;45891;53.006;6.512;2022-11-25T12:26:13;13.70;99.90
60027;DHT22;45891;53.006;6.512;2022-11-25T12:28:45;13.40;99.90
60027;DHT22;45891;53.006;6.512;2022-11-25T12:33:41;13.00;99.90
60027;DHT22;45891;53.006;6.512;2022-11-25T12:36:09;14.10;99.90
60027;DHT22;45891;53.006;6.512;2022-11-25T12:49:01;14.30;99.90
60027;DHT22;45891;53.006;6.512;2022-11-25T12:54:05;14.70;99.90
60027;DHT22;45891;53.006;6.512;2022-11-25T13:02:00;14.70;99.90
60027;DHT22;45891;53.006;6.512;2022-11-25T13:10:00;15.50;99.90
60027;DHT22;45891;53.006;6.512;2022-11-25T13:15:34;14.90;99.90
60027;DHT22;45891;53.006;6.512;2022-11-25T13:18:04;14.40;99.90
60027;DHT22;45891;53.006;6.512;2022-11-25T13:20:34;13.90;99.90
60027;DHT22;45891;53.006;6.512;2022-11-25T13:25:30;13.70;99.90
60027;DHT22;45891;53.006;6.512;2022-11-25T13:27:57;14.40;99.90
60027;DHT22;45891;53.006;6.512;2022-11-25T13:35:34;14.90;99.90
60027;DHT22;45891;53.006;6.512;2022-11-25T13:38:00;14.20;99.90
60027;DHT22;45891;53.006;6.512;2022-11-25T13:42:57;13.30;99.90
60027;DHT22;45891;53.006;6.512;2022-11-25T13:47:51;12.70;99.90
60027;DHT22;45891;53.006;6.512;2022-11-25T13:50:19;12.50;99.90
60027;DHT22;45891;53.006;6.512;2022-11-25T13:57:43;12.90;99.90
60027;DHT22;45891;53.006;6.512;2022-11-25T14:02:40;12.90;99.90
60027;DHT22;45891;53.006;6.512;2022-11-25T14:21:02;11.90;99.90
60027;DHT22;45891;53.006;6.512;2022-11-25T14:26:02;11.80;99.90
60027;DHT22;45891;53.006;6.512;2022-11-25T14:28:32;11.60;99.90
60027;DHT22;45891;53.006;6.512;2022-11-25T14:31:05;11.50;99.90
60027;DHT22;45891;53.006;6.512;2022-11-25T14:33:32;11.40;99.90
60027;DHT22;45891;53.006;6.512;2022-11-25T14:36:33;11.30;99.90
60027;DHT22;45891;53.006;6.512;2022-11-25T14:38:58;11.20;99.90
60027;DHT22;45891;53.006;6.512;2022-11-25T14:41:37;11.10;99.90
60027;DHT22;45891;53.006;6.512;2022-11-25T14:44:04;11.00;99.90
60027;DHT22;45891;53.006;6.512;2022-11-25T14:46:33;10.90;99.90
60027;DHT22;45891;53.006;6.512;2022-11-25T14:49:00;10.90;99.90
60027;DHT22;45891;53.006;6.512;2022-11-25T14:51:27;10.80;99.90
60027;DHT22;45891;53.006;6.512;2022-11-25T14:53:57;10.80;99.90
60027;DHT22;45891;53.006;6.512;2022-11-25T14:56:28;10.70;99.90
60027;DHT22;45891;53.006;6.512;2022-11-25T14:58:55;10.60;99.90
60027;DHT22;45891;53.006;6.512;2022-11-25T15:01:31;10.60;99.90
60027;DHT22;45891;53.006;6.512;2022-11-25T15:06:38;10.40;99.90
60027;DHT22;45891;53.006;6.512;2022-11-25T15:09:26;10.40;99.90
60027;DHT22;45891;53.006;6.512;2022-11-25T15:11:54;10.30;99.90
60027;DHT22;45891;53.006;6.512;2022-11-25T15:14:28;10.30;99.90
60027;DHT22;45891;53.006;6.512;2022-11-25T15:16:55;10.20;99.90
60027;DHT22;45891;53.006;6.512;2022-11-25T15:19:22;10.20;99.90
60027;DHT22;45891;53.006;6.512;2022-11-25T15:21:59;10.20;99.90
60027;DHT22;45891;53.006;6.512;2022-11-25T15:24:28;10.10;99.90
60027;DHT22;45891;53.006;6.512;2022-11-25T15:26:57;10.10;99.90
60027;DHT22;45891;53.006;6.512;2022-11-25T15:29:23;10.10;99.90
60027;DHT22;45891;53.006;6.512;2022-11-25T15:31:50;10.00;99.90
60027;DHT22;45891;53.006;6.512;2022-11-25T15:34:17;10.00;99.90
60027;DHT22;45891;53.006;6.512;2022-11-25T15:36:44;9.90;99.90
60027;DHT22;45891;53.006;6.512;2022-11-25T15:41:42;9.80;99.90
60027;DHT22;45891;53.006;6.512;2022-11-25T15:44:16;9.70;99.90
60027;DHT22;45891;53.006;6.512;2022-11-25T15:46:49;9.70;99.90
60027;DHT22;45891;53.006;6.512;2022-11-25T15:49:16;9.60;99.90
60027;DHT22;45891;53.006;6.512;2022-11-25T15:51:46;9.60;99.90
60027;DHT22;45891;53.006;6.512;2022-11-25T15:54:18;9.50;99.90
60027;DHT22;45891;53.006;6.512;2022-11-25T15:56:47;9.40;99.90
60027;DHT22;45891;53.006;6.512;2022-11-25T16:01:58;9.30;99.90
60027;DHT22;45891;53.006;6.512;2022-11-25T16:04:24;9.20;99.90
60027;DHT22;45891;53.006;6.512;2022-11-25T16:06:51;9.20;99.90
60027;DHT22;45891;53.006;6.512;2022-11-25T16:09:18;9.10;99.90
60027;DHT22;45891;53.006;6.512;2022-11-25T16:11:45;9.10;99.90
60027;DHT22;45891;53.006;6.512;2022-11-25T16:14:18;9.10;99.90
60027;DHT22;45891;53.006;6.512;2022-11-25T16:16:48;9.00;99.90
60027;DHT22;45891;53.006;6.512;2022-11-25T16:19:15;8.90;99.90
60027;DHT22;45891;53.006;6.512;2022-11-25T16:21:47;8.90;99.90
60027;DHT22;45891;53.006;6.512;2022-11-25T16:29:17;8.70;99.90
60027;DHT22;45891;53.006;6.512;2022-11-25T16:31:44;8.60;99.90
60027;DHT22;45891;53.006;6.512;2022-11-25T16:34:17;8.60;99.90
60027;DHT22;45891;53.006;6.512;2022-11-25T16:36:43;8.60;99.90
60027;DHT22;45891;53.006;6.512;2022-11-25T16:39:09;8.50;99.90
60027;DHT22;45891;53.006;6.512;2022-11-25T16:41:35;8.60;99.90
60027;DHT22;45891;53.006;6.512;2022-11-25T16:44:04;8.50;99.90
60027;DHT22;45891;53.006;6.512;2022-11-25T16:46:36;8.60;99.90
60027;DHT22;45891;53.006;6.512;2022-11-25T16:49:35;8.50;99.90
60027;DHT22;45891;53.006;6.512;2022-11-25T16:51:54;8.60;99.90
60027;DHT22;45891;53.006;6.512;2022-11-25T16:54:21;8.50;99.90
60027;DHT22;45891;53.006;6.512;2022-11-25T16:56:47;8.40;99.90
60027;DHT22;45891;53.006;6.512;2022-11-25T16:59:18;8.40;99.90
60027;DHT22;45891;53.006;6.512;2022-11-25T17:01:44;8.40;99.90
60027;DHT22;45891;53.006;6.512;2022-11-25T17:04:11;8.30;99.90
60027;DHT22;45891;53.006;6.512;2022-11-25T17:06:37;8.30;99.90
60027;DHT22;45891;53.006;6.512;2022-11-25T17:09:03;8.30;99.90
60027;DHT22;45891;53.006;6.512;2022-11-25T17:11:30;8.30;99.90
60027;DHT22;45891;53.006;6.512;2022-11-25T17:13:58;8.20;99.90
60027;DHT22;45891;53.006;6.512;2022-11-25T17:16:26;8.20;99.90
60027;DHT22;45891;53.006;6.512;2022-11-25T17:18:53;8.10;99.90
60027;DHT22;45891;53.006;6.512;2022-11-25T17:21:20;8.10;99.90
60027;DHT22;45891;53.006;6.512;2022-11-25T17:23:51;8.00;99.90
60027;DHT22;45891;53.006;6.512;2022-11-25T17:26:36;8.00;99.90
60027;DHT22;45891;53.006;6.512;2022-11-25T17:29:03;8.00;99.90
60027;DHT22;45891;53.006;6.512;2022-11-25T17:31:30;8.00;99.90
60027;DHT22;45891;53.006;6.512;2022-11-25T17:33:56;7.90;99.90
60027;DHT22;45891;53.006;6.512;2022-11-25T17:36:22;7.90;99.90
60027;DHT22;45891;53.006;6.512;2022-11-25T17:38:49;7.90;99.90
60027;DHT22;45891;53.006;6.512;2022-11-25T17:41:16;7.80;99.90
60027;DHT22;45891;53.006;6.512;2022-11-25T17:43:43;7.80;99.90
60027;DHT22;45891;53.006;6.512;2022-11-25T17:46:09;7.80;99.90
60027;DHT22;45891;53.006;6.512;2022-11-25T17:48:36;7.70;99.90
60027;DHT22;45891;53.006;6.512;2022-11-25T17:51:03;7.70;99.90
60027;DHT22;45891;53.006;6.512;2022-11-25T17:53:29;7.70;99.90
60027;DHT22;45891;53.006;6.512;2022-11-25T17:55:55;7.70;99.90
60027;DHT22;45891;53.006;6.512;2022-11-25T17:58:21;7.70;99.90
60027;DHT22;45891;53.006;6.512;2022-11-25T18:00:47;7.60;99.90
60027;DHT22;45891;53.006;6.512;2022-11-25T18:03:16;7.60;99.90
60027;DHT22;45891;53.006;6.512;2022-11-25T18:05:42;7.60;99.90
60027;DHT22;45891;53.006;6.512;2022-11-25T18:08:08;7.50;99.90
60027;DHT22;45891;53.006;6.512;2022-11-25T18:10:34;7.50;99.90
60027;DHT22;45891;53.006;6.512;2022-11-25T18:13:00;7.50;99.90
60027;DHT22;45891;53.006;6.512;2022-11-25T18:15:27;7.40;99.90
60027;DHT22;45891;53.006;6.512;2022-11-25T18:18:02;7.40;99.90
60027;DHT22;45891;53.006;6.512;2022-11-25T18:20:29;7.40;99.90
60027;DHT22;45891;53.006;6.512;2022-11-25T18:22:57;7.40;99.90
60027;DHT22;45891;53.006;6.512;2022-11-25T18:25:33;7.30;99.90
60027;DHT22;45891;53.006;6.512;2022-11-25T18:27:59;7.30;99.90